Meteo Giornale » Osservazioni meteo Egitto » Cairo

ore: 23:30 - Osservazioni Meteo Cairo
Lat. 30° 8' N Lon. 31° 24' E Alt. 64 metri s.l.m.

molto_nuvoloso Africa/Cairo

20 °C

Molto Nuvoloso

Temp. 24 Ore

17 °C

22 °C

Ovest

14.8 Km/h

Dew point 16 °C

Umidità 77 %

Visibilità  6 Km

Il sole sorge alle ore 05:15

Il sole tramonta alle ore 18:29

Data e Ora Cielo e Fenomeni T °C DP °C Um. % Pres. hPa Vis. km Vento km/h
Ieri h: 23:30 molto_nuvoloso Molto Nuvoloso 20 16 77 1012 6 O 14.8
Ieri h: 23:00 molto_nuvoloso Molto Nuvoloso 20 16 77 1012 6 O 16.7
Ieri h: 22:30 sereno Sereno 19 15 77 1012 10 O/NO 11.1
Ieri h: 22:00 molto_nuvoloso Molto Nuvoloso 20 14 68 1012 10 O 11.1
Ieri h: 21:30 molto_nuvoloso Molto Nuvoloso 20 14 68 1012 10 O/SO 11.1
Ieri h: 21:00 molto_nuvoloso Molto Nuvoloso 19 14 72 1012 10 O/SO 11.1
Ieri h: 20:30 molto_nuvoloso Molto Nuvoloso 19 14 72 1012 10 O/SO 11.1
Ieri h: 20:00 molto_nuvoloso Molto Nuvoloso 19 14 72 1012 10 SO 13
Ieri h: 19:30 molto_nuvoloso Molto Nuvoloso 19 15 77 1012 10 SO 11.1
Ieri h: 19:00 molto_nuvoloso Molto Nuvoloso 19 14 72 1012 10 O 14.8
Ieri h: 18:30 molto_nuvoloso Molto Nuvoloso 20 14 68 1011 10 O 18.5
Ieri h: 18:00 molto_nuvoloso Molto Nuvoloso 21 14 64 1011 10 N 0
Ieri h: 17:30 molto_nuvoloso Molto Nuvoloso 21 14 64 1011 10 N 5.5
Ieri h: 17:00 molto_nuvoloso Molto Nuvoloso 22 15 64 1011 10 N/NE 7.4
Ieri h: 16:30 molto_nuvoloso Molto Nuvoloso 21 14 64 1011 10 N 5.5
Ieri h: 16:00 molto_nuvoloso Molto Nuvoloso 21 14 64 1011 10 N 11.1
Ieri h: 15:30 molto_nuvoloso Molto Nuvoloso 20 14 68 1011 10 N 11.1
Ieri h: 15:00 molto_nuvoloso Molto Nuvoloso 21 14 64 1011 10 S 7.4
Ieri h: 14:30 molto_nuvoloso Molto Nuvoloso 20 14 68 1011 10 E/SE 7.4
Ieri h: 14:00 molto_nuvoloso Molto Nuvoloso 19 14 72 1012 10 N 5.5
Ieri h: 13:30 molto_nuvoloso Molto Nuvoloso 18 13 72 1012 10 N 5.5
Ieri h: 13:00 molto_nuvoloso Molto Nuvoloso 21 10 49 1012 10 N/NO 14.8
Ieri h: 12:30 molto_nuvoloso Molto Nuvoloso 22 12 53 1012 10 N 5.5
Ieri h: 12:00 molto_nuvoloso Molto Nuvoloso 21 13 60 1012 6 O/NO 7.4
Ieri h: 11:30 molto_nuvoloso Molto Nuvoloso 21 12 56 1013 6 O 16.7
Ieri h: 11:00 molto_nuvoloso Molto Nuvoloso 22 13 56 1013 6 O 13
Ieri h: 10:30 foschia Foschia 21 13 60 1013 3 S 7.4
Ieri h: 10:00 foschia Foschia 19 14 72 1013 3 S/SE 9.3
Ieri h: 09:30 foschia Foschia 18 14 77 1013 3 S 9.3
Ieri h: 09:00 foschia Foschia 18 14 77 1013 3 S/SE 11.1
Ieri h: 08:00 foschia Foschia 17 13 77 1013 3 N 5.5
Ieri h: 07:30 nuvoloso_piovaschi Debole Rovescio di Pioggia 17 13 77 1013 6 O 11.1
Ieri h: 07:00 nuvoloso Nuvoloso 18 11 63 1012 6 O 13
Ieri h: 06:00 nuvoloso Nuvoloso 17 11 67 1012 6 NO 11.1
Ieri h: 05:30 nuvoloso Nuvoloso 17 11 67 1012 6 NO 13
Ieri h: 05:00 nuvoloso Nuvoloso 18 11 63 1012 6 NO 13
Ieri h: 04:30 nuvoloso Nuvoloso 18 12 67 1011 6 NO 14.8
Ieri h: 04:00 nuvoloso Nuvoloso 18 12 67 1011 6 NO 14.8
Ieri h: 03:30 nuvoloso Nuvoloso 18 12 67 1011 6 NO 14.8
Ieri h: 03:00 nuvoloso Nuvoloso 18 12 67 1011 10 N 9.3
Ieri h: 02:30 nuvoloso Nuvoloso 18 12 67 1011 10 NE 9.3
Ieri h: 02:00 nuvoloso Nuvoloso 19 11 59 1012 10 NO 13
Ieri h: 01:30 nuvoloso Nuvoloso 19 11 59 1012 10 N 16.7
Ieri h: 01:00 nuvoloso Nuvoloso 19 11 59 1012 10 NO 11.1